Terminal Aerodrome Forecast
Issued by NWS Buffalo, NY

Home | Current Version | Previous Version | Text Only | Print | Product List | Glossary On
Versions: 1 2 3 4 5 6 7 8 9 10 11 12 13 14 15 16 17 18 19 20 21 22 23 24 25 26 27 28 29 30
000
FTUS41 KBUF 030800 AAA
TAFART
TAF AMD
KART 030857Z 0309/0406 20004KT P6SM SKC
     FM031300 16004KT P6SM BKN250
     FM031700 17007KT P6SM BKN130
     FM031800 17008KT P6SM BKN070
     FM032200 16010G20KT 2SM -SN OVC035
     FM040300 18016G26KT 3SM -SNPLRA OVC020
     FM040500 19018G30KT 2SM -SN OVC015=

USA.gov is the U.S. government's official web portal to all federal, state and local government web resources and services.